AirNav   Pilot Hours Calculator
 
 1046 users online  

MD21 Ashland Landing Farm Airport
Centreville, Maryland, USA

GOING TO CENTREVILLE?


FAA INFORMATION EFFECTIVE 16 JUNE 2022

Location

FAA Identifier: MD21
Lat/Long: 39-07-05.0000N 076-05-47.0000W
39-07.083333N 076-05.783333W
39.1180556,-76.0963889
(estimated)
Elevation: 10 ft. / 3 m (estimated)
Variation: 11W (1990)
From city: 5 miles N of CENTREVILLE, MD
Time zone: UTC -4 (UTC -5 during Standard Time)
Zip code: 21617

Airport Operations

Airport use: Private use. Permission required prior to landing
Activation date: 08/1995
Control tower: no
ARTCC: WASHINGTON CENTER
FSS: LEESBURG FLIGHT SERVICE STATION
Attendance: UNATNDD
Wind indicator: yes
Segmented circle: no

Airport Communications

WX AWOS-3 at W29 (14 nm SW): 120.575 (410-643-8795)
WX AWOS-3PT at ESN (19 nm S): 124.475 (410-822-2817)
WX AWOS-3PT at MTN (19 nm NW): 124.925 (410-682-8848)

Airport Services

Runway Information

Runway 14/32

Dimensions: 2250 x 50 ft. / 686 x 15 m
Surface: turf
Runway edge markings: 14/32 OUTLINED WITH ORANGE CONES.
RUNWAY 14  RUNWAY 32
Traffic pattern: leftleft

Airport Ownership and Management from official FAA records

Ownership: Privately-owned
Owner: JACOB A ANTWERPEN
6440 BALTIMORE NATIONAL PIKE
BALTIMORE, MD 21218
Phone 410-868-8000
Manager: B DOLAN
6440 BALTIMORE NATIONAL PIKE
BALTIMORE, MD 21218
Phone 443-831-7609

Additional Remarks

FOR CD CTC POTOMAC APCH AT866-429-5882.

Instrument Procedures

There are no published instrument procedures at MD21.

Some nearby airports with instrument procedures:

W29 - Bay Bridge Airport (14 nm SW)
KRJD - Gooden Airpark (14 nm SE)
KEDG - Weide Army Heliport (Aberdeen Proving Ground) (19 nm NW)
KESN - Easton Airport/Newnam Field (19 nm S)
KMTN - Martin State Airport (19 nm NW)
 
Loc | Ops | Rwys | IFR | FBO | Links
Com | Nav | Svcs | Stats | Notes
Area around MD21 (Ashland Landing Farm Airport)
 
Road maps at: MapQuest Bing Google
 
Aerial photo
WARNING: Photo may not be current or correct
Aerial photo of MD21 (Ashland Landing Farm Airport)
Photo by AirNav, LLC
Photo taken 24-Oct-2010
from a Mooney at 7,000 feet looking southeast.

Do you have a better or more recent aerial photo of Ashland Landing Farm Airport that you would like to share? If so, please send us your photo.

 
Sectional chart

 
Airport distance calculator
Flying to Ashland Landing Farm Airport? Find the distance to fly.

From to MD21

Sunrise and sunset
Times for 02-Jul-2022
 Local
(UTC-4)
 Zulu
(UTC)
Morning civil twilight05:1109:11
Sunrise05:4309:43
Sunset20:3300:33
Evening civil twilight21:0501:05

Current date and time
Zulu (UTC)  02-Jul-2022 14:32:28
Local (UTC-4)  02-Jul-2022 10:32:28
 
METAR
KESN 
19nm S 
021345Z 24008KT 10SM SCT090 29/28 A3000
KMTN 
19nm NW 
021354Z 00000KT 10SM CLR 27/22 A2996
KNAK 
20nm SW 
021354Z AUTO 20005KT 10SM CLR 27/22 A2995 RMK AO2 SLP143 T02720217
KAPG 
21nm N 
011858Z 19011KT 9SM BKN040 BKN120 30/23 A2996 RMK AO2A LAST SLP148 T03010226 $
K33N 
24nm E 
021415Z AUTO 25009KT 10SM CLR 29/22 A2996 RMK A01
KBWI 
27nm W 
021354Z 24008KT 10SM FEW020 FEW150 BKN220 BKN250 29/21 A2995 RMK AO2 SLP139 T02890211
TAF
KMTN 
19nm NW 
021125Z 0212/0312 16005KT P6SM BKN130 FM021300 21008G16KT P6SM VCSH FEW050 SCT200 FM021900 17008G16KT P6SM -SHRA VCTS BKN050CB BKN130 FM030000 VRB04KT 6SM -SHRA BKN050 BKN130 FM030300 VRB03KT 5SM BR BKN050 BKN200 FM030900 34005KT P6SM SCT050 BKN130
NOTAMs
Click for the latest NOTAMs
NOTAMs are issued by the DoD/FAA and will open in a separate window not controlled by AirNav.

 

 
 

Would you like to see your business listed on this page?

 If your business provides an interesting product or service to pilots, flight crews, aircraft, or users of the Ashland Landing Farm Airport, you should consider listing it here.  To start the listing process, click on the button below
 
Add a business
 

Other Pages about Ashland Landing Farm Airport

Update a link
 
Copyright © AirNav, LLC. All rights reserved. Privacy Policy  Contact